sensor_id;sensor_type;location;lat;lon;timestamp;temperature;humidity
314;DHT22;143;51.634;7.112;2024-02-26T00:00:40;6.40;99.90
314;DHT22;143;51.634;7.112;2024-02-26T00:03:06;6.30;99.90
314;DHT22;143;51.634;7.112;2024-02-26T00:05:31;6.30;99.90
314;DHT22;143;51.634;7.112;2024-02-26T00:07:57;6.30;99.90
314;DHT22;143;51.634;7.112;2024-02-26T00:10:22;6.40;99.90
314;DHT22;143;51.634;7.112;2024-02-26T00:12:48;6.40;99.90
314;DHT22;143;51.634;7.112;2024-02-26T00:15:13;6.40;99.90
314;DHT22;143;51.634;7.112;2024-02-26T00:17:39;6.40;99.90
314;DHT22;143;51.634;7.112;2024-02-26T00:20:06;6.30;99.90
314;DHT22;143;51.634;7.112;2024-02-26T00:22:34;6.30;99.90
314;DHT22;143;51.634;7.112;2024-02-26T00:25:00;6.20;99.90
314;DHT22;143;51.634;7.112;2024-02-26T00:27:25;6.40;99.90
314;DHT22;143;51.634;7.112;2024-02-26T00:29:51;6.40;99.90
314;DHT22;143;51.634;7.112;2024-02-26T00:32:16;6.50;99.90
314;DHT22;143;51.634;7.112;2024-02-26T00:34:42;6.40;99.90
314;DHT22;143;51.634;7.112;2024-02-26T00:37:07;6.30;99.90
314;DHT22;143;51.634;7.112;2024-02-26T00:39:33;6.30;99.90
314;DHT22;143;51.634;7.112;2024-02-26T00:41:58;6.30;99.90
314;DHT22;143;51.634;7.112;2024-02-26T00:44:24;6.30;99.90
314;DHT22;143;51.634;7.112;2024-02-26T00:46:49;6.30;99.90
314;DHT22;143;51.634;7.112;2024-02-26T00:49:15;6.30;99.90
314;DHT22;143;51.634;7.112;2024-02-26T00:51:40;6.20;99.90
314;DHT22;143;51.634;7.112;2024-02-26T00:54:06;6.30;99.90
314;DHT22;143;51.634;7.112;2024-02-26T00:56:31;6.30;99.90
314;DHT22;143;51.634;7.112;2024-02-26T00:58:58;6.20;99.90
314;DHT22;143;51.634;7.112;2024-02-26T01:01:23;6.10;99.90
314;DHT22;143;51.634;7.112;2024-02-26T01:03:49;6.10;99.90
314;DHT22;143;51.634;7.112;2024-02-26T01:06:14;6.10;99.90
314;DHT22;143;51.634;7.112;2024-02-26T01:08:40;6.30;99.90
314;DHT22;143;51.634;7.112;2024-02-26T01:11:05;6.30;99.90
314;DHT22;143;51.634;7.112;2024-02-26T01:13:31;6.30;99.90
314;DHT22;143;51.634;7.112;2024-02-26T01:15:56;6.10;99.90
314;DHT22;143;51.634;7.112;2024-02-26T01:18:22;6.20;99.90
314;DHT22;143;51.634;7.112;2024-02-26T01:20:48;6.30;99.90
314;DHT22;143;51.634;7.112;2024-02-26T01:23:14;6.30;99.90
314;DHT22;143;51.634;7.112;2024-02-26T01:25:39;6.20;99.90
314;DHT22;143;51.634;7.112;2024-02-26T01:28:05;6.40;99.90
314;DHT22;143;51.634;7.112;2024-02-26T01:30:31;6.30;99.90
314;DHT22;143;51.634;7.112;2024-02-26T01:32:57;6.30;99.90
314;DHT22;143;51.634;7.112;2024-02-26T01:35:22;6.40;99.90
314;DHT22;143;51.634;7.112;2024-02-26T01:37:48;6.30;99.90
314;DHT22;143;51.634;7.112;2024-02-26T01:40:14;6.40;99.90
314;DHT22;143;51.634;7.112;2024-02-26T01:42:43;6.30;99.90
314;DHT22;143;51.634;7.112;2024-02-26T01:45:14;6.30;99.90
314;DHT22;143;51.634;7.112;2024-02-26T01:47:41;6.50;99.90
314;DHT22;143;51.634;7.112;2024-02-26T01:50:08;6.40;99.90
314;DHT22;143;51.634;7.112;2024-02-26T01:52:34;6.60;99.90
314;DHT22;143;51.634;7.112;2024-02-26T01:54:59;6.70;99.90
314;DHT22;143;51.634;7.112;2024-02-26T01:57:27;6.40;99.90
314;DHT22;143;51.634;7.112;2024-02-26T01:59:53;6.50;99.90
314;DHT22;143;51.634;7.112;2024-02-26T02:02:19;6.70;99.90
314;DHT22;143;51.634;7.112;2024-02-26T02:04:44;6.80;99.90
314;DHT22;143;51.634;7.112;2024-02-26T02:07:10;6.60;99.90
314;DHT22;143;51.634;7.112;2024-02-26T02:09:36;6.60;99.90
314;DHT22;143;51.634;7.112;2024-02-26T02:12:02;6.40;99.90
314;DHT22;143;51.634;7.112;2024-02-26T02:14:27;6.60;99.90
314;DHT22;143;51.634;7.112;2024-02-26T02:16:53;6.70;99.90
314;DHT22;143;51.634;7.112;2024-02-26T02:19:18;6.60;99.90
314;DHT22;143;51.634;7.112;2024-02-26T02:21:44;6.70;99.90
314;DHT22;143;51.634;7.112;2024-02-26T02:24:09;6.60;99.90
314;DHT22;143;51.634;7.112;2024-02-26T02:26:35;6.80;99.90
314;DHT22;143;51.634;7.112;2024-02-26T02:29:01;6.80;99.90
314;DHT22;143;51.634;7.112;2024-02-26T02:31:27;6.70;99.90
314;DHT22;143;51.634;7.112;2024-02-26T02:33:53;6.70;99.90
314;DHT22;143;51.634;7.112;2024-02-26T02:36:18;6.80;99.90
314;DHT22;143;51.634;7.112;2024-02-26T02:38:51;6.60;99.90
314;DHT22;143;51.634;7.112;2024-02-26T02:41:18;6.60;99.90
314;DHT22;143;51.634;7.112;2024-02-26T02:43:43;6.80;99.90
314;DHT22;143;51.634;7.112;2024-02-26T02:46:09;6.60;99.90
314;DHT22;143;51.634;7.112;2024-02-26T02:48:37;6.70;99.90
314;DHT22;143;51.634;7.112;2024-02-26T02:51:02;6.50;99.90
314;DHT22;143;51.634;7.112;2024-02-26T02:53:28;6.70;99.90
314;DHT22;143;51.634;7.112;2024-02-26T02:55:53;6.70;99.90
314;DHT22;143;51.634;7.112;2024-02-26T02:58:19;6.70;99.90
314;DHT22;143;51.634;7.112;2024-02-26T03:00:44;7.00;99.90
314;DHT22;143;51.634;7.112;2024-02-26T03:03:10;6.80;99.90
314;DHT22;143;51.634;7.112;2024-02-26T03:05:36;6.70;99.90
314;DHT22;143;51.634;7.112;2024-02-26T03:08:01;6.60;99.90
314;DHT22;143;51.634;7.112;2024-02-26T03:10:27;6.70;99.90
314;DHT22;143;51.634;7.112;2024-02-26T03:12:53;6.60;99.90
314;DHT22;143;51.634;7.112;2024-02-26T03:15:19;6.70;99.90
314;DHT22;143;51.634;7.112;2024-02-26T03:17:44;6.60;99.90
314;DHT22;143;51.634;7.112;2024-02-26T03:20:10;6.70;99.90
314;DHT22;143;51.634;7.112;2024-02-26T03:22:38;6.60;99.90
314;DHT22;143;51.634;7.112;2024-02-26T03:25:03;6.60;99.90
314;DHT22;143;51.634;7.112;2024-02-26T03:27:29;7.00;99.90
314;DHT22;143;51.634;7.112;2024-02-26T03:29:55;6.90;99.90
314;DHT22;143;51.634;7.112;2024-02-26T03:32:20;6.60;99.90
314;DHT22;143;51.634;7.112;2024-02-26T03:34:46;6.70;99.90
314;DHT22;143;51.634;7.112;2024-02-26T03:37:11;6.60;99.90
314;DHT22;143;51.634;7.112;2024-02-26T03:39:37;6.70;99.90
314;DHT22;143;51.634;7.112;2024-02-26T03:42:03;6.60;99.90
314;DHT22;143;51.634;7.112;2024-02-26T03:44:29;6.60;99.90
314;DHT22;143;51.634;7.112;2024-02-26T03:46:54;6.50;99.90
314;DHT22;143;51.634;7.112;2024-02-26T03:49:21;6.70;99.90
314;DHT22;143;51.634;7.112;2024-02-26T03:51:47;6.60;99.90
314;DHT22;143;51.634;7.112;2024-02-26T03:54:13;6.60;99.90
314;DHT22;143;51.634;7.112;2024-02-26T03:56:39;6.60;99.90
314;DHT22;143;51.634;7.112;2024-02-26T03:59:04;6.60;99.90
314;DHT22;143;51.634;7.112;2024-02-26T04:01:30;6.70;99.90
314;DHT22;143;51.634;7.112;2024-02-26T04:03:56;6.60;99.90
314;DHT22;143;51.634;7.112;2024-02-26T04:06:21;6.40;99.90
314;DHT22;143;51.634;7.112;2024-02-26T04:08:48;6.70;99.90
314;DHT22;143;51.634;7.112;2024-02-26T04:11:14;6.50;99.90
314;DHT22;143;51.634;7.112;2024-02-26T04:13:43;6.60;99.90
314;DHT22;143;51.634;7.112;2024-02-26T04:16:11;6.40;99.90
314;DHT22;143;51.634;7.112;2024-02-26T04:18:37;6.30;99.90
314;DHT22;143;51.634;7.112;2024-02-26T04:21:04;6.30;99.90
314;DHT22;143;51.634;7.112;2024-02-26T04:23:30;6.30;99.90
314;DHT22;143;51.634;7.112;2024-02-26T04:25:56;6.20;99.90
314;DHT22;143;51.634;7.112;2024-02-26T04:28:21;6.30;99.90
314;DHT22;143;51.634;7.112;2024-02-26T04:30:47;6.30;99.90
314;DHT22;143;51.634;7.112;2024-02-26T04:33:16;6.30;99.90
314;DHT22;143;51.634;7.112;2024-02-26T04:35:42;6.20;99.90
314;DHT22;143;51.634;7.112;2024-02-26T04:38:08;6.30;99.90
314;DHT22;143;51.634;7.112;2024-02-26T04:40:33;6.40;1.00
314;DHT22;143;51.634;7.112;2024-02-26T04:42:59;6.30;1.00
314;DHT22;143;51.634;7.112;2024-02-26T04:45:24;6.30;1.00
314;DHT22;143;51.634;7.112;2024-02-26T04:47:50;6.30;1.00
314;DHT22;143;51.634;7.112;2024-02-26T04:50:15;6.30;1.00
314;DHT22;143;51.634;7.112;2024-02-26T04:52:41;6.40;1.00
314;DHT22;143;51.634;7.112;2024-02-26T04:55:09;6.30;1.00
314;DHT22;143;51.634;7.112;2024-02-26T04:57:34;6.30;1.00
314;DHT22;143;51.634;7.112;2024-02-26T05:00:00;6.40;1.00
314;DHT22;143;51.634;7.112;2024-02-26T05:02:25;6.40;1.00
314;DHT22;143;51.634;7.112;2024-02-26T05:04:51;6.00;1.00
314;DHT22;143;51.634;7.112;2024-02-26T05:07:17;6.00;1.00
314;DHT22;143;51.634;7.112;2024-02-26T05:09:43;6.20;1.00
314;DHT22;143;51.634;7.112;2024-02-26T05:12:09;6.20;1.00
314;DHT22;143;51.634;7.112;2024-02-26T05:14:35;5.90;1.00
314;DHT22;143;51.634;7.112;2024-02-26T05:17:00;6.10;1.00
314;DHT22;143;51.634;7.112;2024-02-26T05:19:26;6.00;1.00
314;DHT22;143;51.634;7.112;2024-02-26T05:21:51;6.00;1.00
314;DHT22;143;51.634;7.112;2024-02-26T05:24:17;6.10;1.00
314;DHT22;143;51.634;7.112;2024-02-26T05:26:43;6.20;1.00
314;DHT22;143;51.634;7.112;2024-02-26T05:29:09;6.10;1.00
314;DHT22;143;51.634;7.112;2024-02-26T05:31:34;5.90;1.00
314;DHT22;143;51.634;7.112;2024-02-26T05:34:00;6.20;1.00
314;DHT22;143;51.634;7.112;2024-02-26T05:36:26;5.90;1.00
314;DHT22;143;51.634;7.112;2024-02-26T05:38:53;6.10;1.00
314;DHT22;143;51.634;7.112;2024-02-26T05:41:19;6.10;1.00
314;DHT22;143;51.634;7.112;2024-02-26T05:43:49;6.10;1.00
314;DHT22;143;51.634;7.112;2024-02-26T05:46:19;6.10;1.00
314;DHT22;143;51.634;7.112;2024-02-26T05:48:46;6.00;1.00
314;DHT22;143;51.634;7.112;2024-02-26T05:51:12;6.00;1.00
314;DHT22;143;51.634;7.112;2024-02-26T05:53:38;6.00;1.00
314;DHT22;143;51.634;7.112;2024-02-26T05:56:03;5.70;1.00
314;DHT22;143;51.634;7.112;2024-02-26T05:58:29;6.00;1.00
314;DHT22;143;51.634;7.112;2024-02-26T06:00:54;5.90;1.00
314;DHT22;143;51.634;7.112;2024-02-26T06:03:20;5.80;1.00
314;DHT22;143;51.634;7.112;2024-02-26T06:05:46;5.60;1.00
314;DHT22;143;51.634;7.112;2024-02-26T06:08:12;6.00;1.00
314;DHT22;143;51.634;7.112;2024-02-26T06:10:37;6.00;1.00
314;DHT22;143;51.634;7.112;2024-02-26T06:13:04;5.80;1.00
314;DHT22;143;51.634;7.112;2024-02-26T06:15:30;5.80;1.00
314;DHT22;143;51.634;7.112;2024-02-26T06:17:55;5.80;1.00
314;DHT22;143;51.634;7.112;2024-02-26T06:20:21;6.00;1.00
314;DHT22;143;51.634;7.112;2024-02-26T06:22:46;5.60;1.00
314;DHT22;143;51.634;7.112;2024-02-26T06:25:12;5.50;1.00
314;DHT22;143;51.634;7.112;2024-02-26T06:27:37;5.60;1.00
314;DHT22;143;51.634;7.112;2024-02-26T06:30:03;5.90;1.00
314;DHT22;143;51.634;7.112;2024-02-26T06:32:29;5.80;1.00
314;DHT22;143;51.634;7.112;2024-02-26T06:34:55;5.60;1.00
314;DHT22;143;51.634;7.112;2024-02-26T06:37:21;5.60;1.00
314;DHT22;143;51.634;7.112;2024-02-26T06:39:46;5.80;1.00
314;DHT22;143;51.634;7.112;2024-02-26T06:42:12;5.60;1.00
314;DHT22;143;51.634;7.112;2024-02-26T06:44:37;5.60;1.00
314;DHT22;143;51.634;7.112;2024-02-26T06:47:03;5.60;1.00
314;DHT22;143;51.634;7.112;2024-02-26T06:49:29;5.60;1.00
314;DHT22;143;51.634;7.112;2024-02-26T06:51:55;5.60;1.00
314;DHT22;143;51.634;7.112;2024-02-26T06:54:21;5.80;1.00
314;DHT22;143;51.634;7.112;2024-02-26T06:56:46;6.00;1.00
314;DHT22;143;51.634;7.112;2024-02-26T06:59:12;6.00;1.00
314;DHT22;143;51.634;7.112;2024-02-26T07:01:42;5.80;1.00
314;DHT22;143;51.634;7.112;2024-02-26T07:04:08;6.00;1.00
314;DHT22;143;51.634;7.112;2024-02-26T07:06:34;6.10;1.00
314;DHT22;143;51.634;7.112;2024-02-26T07:08:59;6.00;1.00
314;DHT22;143;51.634;7.112;2024-02-26T07:11:25;5.90;1.00
314;DHT22;143;51.634;7.112;2024-02-26T07:13:50;5.90;1.00
314;DHT22;143;51.634;7.112;2024-02-26T07:16:16;6.20;1.00
314;DHT22;143;51.634;7.112;2024-02-26T07:18:41;6.20;1.00
314;DHT22;143;51.634;7.112;2024-02-26T07:21:09;5.90;1.00
314;DHT22;143;51.634;7.112;2024-02-26T07:23:34;6.30;1.00
314;DHT22;143;51.634;7.112;2024-02-26T07:26:00;6.00;1.00
314;DHT22;143;51.634;7.112;2024-02-26T07:28:25;6.20;1.00
314;DHT22;143;51.634;7.112;2024-02-26T07:30:51;6.20;1.00
314;DHT22;143;51.634;7.112;2024-02-26T07:33:17;6.10;1.00
314;DHT22;143;51.634;7.112;2024-02-26T07:35:42;6.00;1.00
314;DHT22;143;51.634;7.112;2024-02-26T07:38:08;6.10;1.00
314;DHT22;143;51.634;7.112;2024-02-26T07:40:33;6.00;1.00
314;DHT22;143;51.634;7.112;2024-02-26T07:42:59;5.90;1.00
314;DHT22;143;51.634;7.112;2024-02-26T07:45:24;6.30;1.00
314;DHT22;143;51.634;7.112;2024-02-26T07:47:50;6.30;1.00
314;DHT22;143;51.634;7.112;2024-02-26T07:50:17;6.20;1.00
314;DHT22;143;51.634;7.112;2024-02-26T07:52:42;6.40;1.00
314;DHT22;143;51.634;7.112;2024-02-26T07:55:08;6.30;1.00
314;DHT22;143;51.634;7.112;2024-02-26T07:57:34;6.20;1.00
314;DHT22;143;51.634;7.112;2024-02-26T08:00:00;6.20;1.00
314;DHT22;143;51.634;7.112;2024-02-26T08:02:25;6.30;1.00
314;DHT22;143;51.634;7.112;2024-02-26T08:04:51;6.20;1.00
314;DHT22;143;51.634;7.112;2024-02-26T08:07:16;6.00;1.00
314;DHT22;143;51.634;7.112;2024-02-26T08:09:42;6.10;1.00
314;DHT22;143;51.634;7.112;2024-02-26T08:12:08;6.20;1.00
314;DHT22;143;51.634;7.112;2024-02-26T08:14:34;6.30;1.00
314;DHT22;143;51.634;7.112;2024-02-26T08:16:59;6.00;1.00
314;DHT22;143;51.634;7.112;2024-02-26T08:19:25;6.30;1.00
314;DHT22;143;51.634;7.112;2024-02-26T08:21:51;6.30;1.00
314;DHT22;143;51.634;7.112;2024-02-26T08:24:17;6.30;1.00
314;DHT22;143;51.634;7.112;2024-02-26T08:26:43;6.30;1.00
314;DHT22;143;51.634;7.112;2024-02-26T08:29:08;6.00;1.00
314;DHT22;143;51.634;7.112;2024-02-26T08:31:34;6.20;1.00
314;DHT22;143;51.634;7.112;2024-02-26T08:34:05;6.10;1.00
314;DHT22;143;51.634;7.112;2024-02-26T08:36:33;6.40;1.00
314;DHT22;143;51.634;7.112;2024-02-26T08:38:59;6.40;1.00
314;DHT22;143;51.634;7.112;2024-02-26T08:41:24;6.30;1.00
314;DHT22;143;51.634;7.112;2024-02-26T08:43:50;6.40;1.00
314;DHT22;143;51.634;7.112;2024-02-26T08:46:15;6.40;1.00
314;DHT22;143;51.634;7.112;2024-02-26T08:48:41;6.40;1.00
314;DHT22;143;51.634;7.112;2024-02-26T08:51:07;6.50;1.00
314;DHT22;143;51.634;7.112;2024-02-26T08:53:33;6.30;1.00
314;DHT22;143;51.634;7.112;2024-02-26T08:55:58;6.20;1.00
314;DHT22;143;51.634;7.112;2024-02-26T08:58:24;6.30;1.00
314;DHT22;143;51.634;7.112;2024-02-26T09:00:50;6.40;1.00
314;DHT22;143;51.634;7.112;2024-02-26T09:03:16;6.40;1.00
314;DHT22;143;51.634;7.112;2024-02-26T09:05:41;6.50;1.00
314;DHT22;143;51.634;7.112;2024-02-26T09:08:07;6.70;1.00
314;DHT22;143;51.634;7.112;2024-02-26T09:10:33;6.40;1.00
314;DHT22;143;51.634;7.112;2024-02-26T09:12:58;6.50;1.00
314;DHT22;143;51.634;7.112;2024-02-26T09:15:24;6.50;1.00
314;DHT22;143;51.634;7.112;2024-02-26T09:17:49;6.60;1.00
314;DHT22;143;51.634;7.112;2024-02-26T09:20:15;6.60;1.00
314;DHT22;143;51.634;7.112;2024-02-26T09:22:48;6.60;1.00
314;DHT22;143;51.634;7.112;2024-02-26T09:25:13;6.60;1.00
314;DHT22;143;51.634;7.112;2024-02-26T09:27:41;6.60;1.00
314;DHT22;143;51.634;7.112;2024-02-26T09:30:08;6.80;1.00
314;DHT22;143;51.634;7.112;2024-02-26T09:32:33;6.60;1.00
314;DHT22;143;51.634;7.112;2024-02-26T09:34:59;6.80;1.00
314;DHT22;143;51.634;7.112;2024-02-26T09:37:25;7.00;1.00
314;DHT22;143;51.634;7.112;2024-02-26T09:39:50;6.80;1.00
314;DHT22;143;51.634;7.112;2024-02-26T09:42:18;6.80;1.00
314;DHT22;143;51.634;7.112;2024-02-26T09:44:45;6.90;1.00
314;DHT22;143;51.634;7.112;2024-02-26T09:47:12;6.70;1.00
314;DHT22;143;51.634;7.112;2024-02-26T09:49:41;6.60;1.00
314;DHT22;143;51.634;7.112;2024-02-26T09:52:08;6.80;1.00
314;DHT22;143;51.634;7.112;2024-02-26T09:54:35;6.90;1.00
314;DHT22;143;51.634;7.112;2024-02-26T09:57:02;6.90;1.00
314;DHT22;143;51.634;7.112;2024-02-26T09:59:29;6.80;1.00
314;DHT22;143;51.634;7.112;2024-02-26T10:02:01;6.90;1.00
314;DHT22;143;51.634;7.112;2024-02-26T10:04:28;6.80;1.00
314;DHT22;143;51.634;7.112;2024-02-26T10:06:55;7.10;1.00
314;DHT22;143;51.634;7.112;2024-02-26T10:09:21;7.30;1.00
314;DHT22;143;51.634;7.112;2024-02-26T10:11:47;7.10;1.00
314;DHT22;143;51.634;7.112;2024-02-26T10:14:14;7.30;1.00
314;DHT22;143;51.634;7.112;2024-02-26T10:16:41;7.20;1.00
314;DHT22;143;51.634;7.112;2024-02-26T10:19:06;6.90;1.00
314;DHT22;143;51.634;7.112;2024-02-26T10:21:32;7.20;1.00
314;DHT22;143;51.634;7.112;2024-02-26T10:23:58;7.20;1.00
314;DHT22;143;51.634;7.112;2024-02-26T10:26:23;7.20;1.00
314;DHT22;143;51.634;7.112;2024-02-26T10:28:49;7.10;1.00
314;DHT22;143;51.634;7.112;2024-02-26T10:31:14;7.30;1.00
314;DHT22;143;51.634;7.112;2024-02-26T10:33:42;7.40;1.00
314;DHT22;143;51.634;7.112;2024-02-26T10:36:08;7.30;1.00
314;DHT22;143;51.634;7.112;2024-02-26T10:38:34;7.30;1.00
314;DHT22;143;51.634;7.112;2024-02-26T10:41:05;7.40;1.00
314;DHT22;143;51.634;7.112;2024-02-26T10:43:31;7.20;1.00
314;DHT22;143;51.634;7.112;2024-02-26T10:45:57;7.30;1.00
314;DHT22;143;51.634;7.112;2024-02-26T10:48:23;7.30;1.00
314;DHT22;143;51.634;7.112;2024-02-26T10:50:49;7.20;1.00
314;DHT22;143;51.634;7.112;2024-02-26T10:53:17;7.30;1.00
314;DHT22;143;51.634;7.112;2024-02-26T10:55:49;7.50;1.00
314;DHT22;143;51.634;7.112;2024-02-26T10:58:16;7.40;1.00
314;DHT22;143;51.634;7.112;2024-02-26T11:00:42;7.50;1.00
314;DHT22;143;51.634;7.112;2024-02-26T11:03:09;7.40;1.00
314;DHT22;143;51.634;7.112;2024-02-26T11:05:36;7.70;1.00
314;DHT22;143;51.634;7.112;2024-02-26T11:08:03;7.70;1.00
314;DHT22;143;51.634;7.112;2024-02-26T11:10:29;7.50;1.00
314;DHT22;143;51.634;7.112;2024-02-26T11:12:57;7.80;1.00
314;DHT22;143;51.634;7.112;2024-02-26T11:15:25;7.90;1.00
314;DHT22;143;51.634;7.112;2024-02-26T11:17:52;7.90;1.00
314;DHT22;143;51.634;7.112;2024-02-26T11:20:19;7.70;1.00
314;DHT22;143;51.634;7.112;2024-02-26T11:22:45;7.80;1.00
314;DHT22;143;51.634;7.112;2024-02-26T11:25:11;7.70;1.00
314;DHT22;143;51.634;7.112;2024-02-26T11:27:52;7.90;1.00
314;DHT22;143;51.634;7.112;2024-02-26T11:30:19;7.90;1.00
314;DHT22;143;51.634;7.112;2024-02-26T11:32:48;7.80;1.00
314;DHT22;143;51.634;7.112;2024-02-26T11:35:15;7.70;1.00
314;DHT22;143;51.634;7.112;2024-02-26T11:37:51;7.60;1.00
314;DHT22;143;51.634;7.112;2024-02-26T11:40:18;7.60;1.00
314;DHT22;143;51.634;7.112;2024-02-26T11:42:44;7.40;1.00
314;DHT22;143;51.634;7.112;2024-02-26T11:48:04;8.00;1.00
314;DHT22;143;51.634;7.112;2024-02-26T11:50:51;8.00;1.00
314;DHT22;143;51.634;7.112;2024-02-26T11:53:30;8.10;1.00
314;DHT22;143;51.634;7.112;2024-02-26T11:59:09;7.80;1.00
314;DHT22;143;51.634;7.112;2024-02-26T12:01:45;8.10;1.00
314;DHT22;143;51.634;7.112;2024-02-26T12:04:21;8.00;1.00
314;DHT22;143;51.634;7.112;2024-02-26T12:06:51;8.10;1.00
314;DHT22;143;51.634;7.112;2024-02-26T12:09:39;8.10;1.00
314;DHT22;143;51.634;7.112;2024-02-26T12:12:09;8.20;1.00
314;DHT22;143;51.634;7.112;2024-02-26T12:14:39;8.20;1.00
314;DHT22;143;51.634;7.112;2024-02-26T12:17:07;8.10;1.00
314;DHT22;143;51.634;7.112;2024-02-26T12:19:35;8.30;1.00
314;DHT22;143;51.634;7.112;2024-02-26T12:22:01;8.50;1.00
314;DHT22;143;51.634;7.112;2024-02-26T12:24:27;8.40;1.00
314;DHT22;143;51.634;7.112;2024-02-26T12:26:52;8.20;1.00
314;DHT22;143;51.634;7.112;2024-02-26T12:29:18;8.50;1.00
314;DHT22;143;51.634;7.112;2024-02-26T12:31:44;8.50;1.00
314;DHT22;143;51.634;7.112;2024-02-26T12:34:09;8.50;1.00
314;DHT22;143;51.634;7.112;2024-02-26T12:36:35;8.50;1.00
314;DHT22;143;51.634;7.112;2024-02-26T12:39:02;8.20;1.00
314;DHT22;143;51.634;7.112;2024-02-26T12:41:28;8.30;1.00
314;DHT22;143;51.634;7.112;2024-02-26T12:43:57;8.40;1.00
314;DHT22;143;51.634;7.112;2024-02-26T12:46:23;8.20;1.00
314;DHT22;143;51.634;7.112;2024-02-26T12:48:49;8.20;1.00
314;DHT22;143;51.634;7.112;2024-02-26T12:51:16;8.20;1.00
314;DHT22;143;51.634;7.112;2024-02-26T12:53:41;8.30;1.00
314;DHT22;143;51.634;7.112;2024-02-26T12:56:09;8.40;1.00
314;DHT22;143;51.634;7.112;2024-02-26T12:58:35;8.50;1.00
314;DHT22;143;51.634;7.112;2024-02-26T13:01:03;8.60;1.00
314;DHT22;143;51.634;7.112;2024-02-26T13:03:29;8.40;1.00
314;DHT22;143;51.634;7.112;2024-02-26T13:05:55;8.30;1.00
314;DHT22;143;51.634;7.112;2024-02-26T13:08:21;8.50;1.00
314;DHT22;143;51.634;7.112;2024-02-26T13:10:47;8.20;1.00
314;DHT22;143;51.634;7.112;2024-02-26T13:13:16;8.20;1.00
314;DHT22;143;51.634;7.112;2024-02-26T13:15:45;8.30;1.00
314;DHT22;143;51.634;7.112;2024-02-26T13:18:14;8.40;1.00
314;DHT22;143;51.634;7.112;2024-02-26T13:20:42;8.40;1.00
314;DHT22;143;51.634;7.112;2024-02-26T13:23:11;8.40;1.00
314;DHT22;143;51.634;7.112;2024-02-26T13:25:37;8.20;1.00
314;DHT22;143;51.634;7.112;2024-02-26T13:28:15;8.20;1.00
314;DHT22;143;51.634;7.112;2024-02-26T13:30:41;8.10;1.00
314;DHT22;143;51.634;7.112;2024-02-26T13:33:09;8.20;1.00
314;DHT22;143;51.634;7.112;2024-02-26T13:35:34;8.20;1.00
314;DHT22;143;51.634;7.112;2024-02-26T13:38:00;8.20;1.00
314;DHT22;143;51.634;7.112;2024-02-26T13:40:26;8.30;1.00
314;DHT22;143;51.634;7.112;2024-02-26T13:42:51;8.00;1.00
314;DHT22;143;51.634;7.112;2024-02-26T13:45:18;8.40;1.00
314;DHT22;143;51.634;7.112;2024-02-26T13:47:43;8.20;1.00
314;DHT22;143;51.634;7.112;2024-02-26T13:50:09;8.10;1.00
314;DHT22;143;51.634;7.112;2024-02-26T13:52:35;8.20;1.00
314;DHT22;143;51.634;7.112;2024-02-26T13:55:01;8.20;1.00
314;DHT22;143;51.634;7.112;2024-02-26T13:57:28;8.10;1.00
314;DHT22;143;51.634;7.112;2024-02-26T13:59:54;8.00;1.00
314;DHT22;143;51.634;7.112;2024-02-26T14:02:19;8.00;1.00
314;DHT22;143;51.634;7.112;2024-02-26T14:04:46;8.20;1.00
314;DHT22;143;51.634;7.112;2024-02-26T14:07:12;8.00;1.00
314;DHT22;143;51.634;7.112;2024-02-26T14:09:38;8.10;1.00
314;DHT22;143;51.634;7.112;2024-02-26T14:12:04;8.00;1.00
314;DHT22;143;51.634;7.112;2024-02-26T14:14:30;8.10;1.00
314;DHT22;143;51.634;7.112;2024-02-26T14:16:58;8.10;1.00
314;DHT22;143;51.634;7.112;2024-02-26T14:19:24;7.90;1.00
314;DHT22;143;51.634;7.112;2024-02-26T14:21:49;8.10;1.00
314;DHT22;143;51.634;7.112;2024-02-26T14:24:15;8.00;1.00
314;DHT22;143;51.634;7.112;2024-02-26T14:26:42;8.00;1.00
314;DHT22;143;51.634;7.112;2024-02-26T14:29:07;8.20;1.00
314;DHT22;143;51.634;7.112;2024-02-26T14:31:33;7.80;1.00
314;DHT22;143;51.634;7.112;2024-02-26T14:33:59;7.90;1.00
314;DHT22;143;51.634;7.112;2024-02-26T14:36:24;7.90;1.00
314;DHT22;143;51.634;7.112;2024-02-26T14:38:51;7.90;1.00
314;DHT22;143;51.634;7.112;2024-02-26T14:41:16;8.10;1.00
314;DHT22;143;51.634;7.112;2024-02-26T14:43:42;8.10;1.00
314;DHT22;143;51.634;7.112;2024-02-26T14:46:08;7.80;1.00
314;DHT22;143;51.634;7.112;2024-02-26T14:48:33;7.80;1.00
314;DHT22;143;51.634;7.112;2024-02-26T14:50:59;8.00;1.00
314;DHT22;143;51.634;7.112;2024-02-26T14:53:25;8.10;1.00
314;DHT22;143;51.634;7.112;2024-02-26T14:55:51;8.10;1.00
314;DHT22;143;51.634;7.112;2024-02-26T14:58:17;7.80;1.00
314;DHT22;143;51.634;7.112;2024-02-26T15:00:42;7.80;1.00
314;DHT22;143;51.634;7.112;2024-02-26T15:03:08;8.20;1.00
314;DHT22;143;51.634;7.112;2024-02-26T15:05:34;8.10;1.00
314;DHT22;143;51.634;7.112;2024-02-26T15:08:00;8.20;1.00
314;DHT22;143;51.634;7.112;2024-02-26T15:10:26;8.10;1.00
314;DHT22;143;51.634;7.112;2024-02-26T15:12:52;8.20;1.00
314;DHT22;143;51.634;7.112;2024-02-26T15:15:21;8.00;1.00
314;DHT22;143;51.634;7.112;2024-02-26T15:17:47;8.10;1.00
314;DHT22;143;51.634;7.112;2024-02-26T15:20:14;7.90;1.00
314;DHT22;143;51.634;7.112;2024-02-26T15:22:40;7.90;1.00
314;DHT22;143;51.634;7.112;2024-02-26T15:25:06;8.20;1.00
314;DHT22;143;51.634;7.112;2024-02-26T15:27:32;8.20;1.00
314;DHT22;143;51.634;7.112;2024-02-26T15:29:57;8.20;1.00
314;DHT22;143;51.634;7.112;2024-02-26T15:32:26;8.10;1.00
314;DHT22;143;51.634;7.112;2024-02-26T15:34:53;7.90;1.00
314;DHT22;143;51.634;7.112;2024-02-26T15:37:18;7.90;1.00
314;DHT22;143;51.634;7.112;2024-02-26T15:39:44;7.90;1.00
314;DHT22;143;51.634;7.112;2024-02-26T15:42:10;8.10;1.00
314;DHT22;143;51.634;7.112;2024-02-26T15:44:40;8.10;1.00
314;DHT22;143;51.634;7.112;2024-02-26T15:47:06;7.90;1.00
314;DHT22;143;51.634;7.112;2024-02-26T15:49:32;8.10;1.00
314;DHT22;143;51.634;7.112;2024-02-26T15:51:58;8.20;1.00
314;DHT22;143;51.634;7.112;2024-02-26T15:54:24;7.80;1.00
314;DHT22;143;51.634;7.112;2024-02-26T15:56:50;7.80;1.00
314;DHT22;143;51.634;7.112;2024-02-26T15:59:16;8.00;1.00
314;DHT22;143;51.634;7.112;2024-02-26T16:01:42;8.00;1.00
314;DHT22;143;51.634;7.112;2024-02-26T16:04:08;7.80;1.00
314;DHT22;143;51.634;7.112;2024-02-26T16:06:36;8.10;1.00
314;DHT22;143;51.634;7.112;2024-02-26T16:09:03;7.90;1.00
314;DHT22;143;51.634;7.112;2024-02-26T16:11:28;8.10;1.00
314;DHT22;143;51.634;7.112;2024-02-26T16:14:33;8.20;1.00
314;DHT22;143;51.634;7.112;2024-02-26T16:17:18;8.00;1.00
314;DHT22;143;51.634;7.112;2024-02-26T16:19:45;8.00;1.00
314;DHT22;143;51.634;7.112;2024-02-26T16:22:11;7.80;1.00
314;DHT22;143;51.634;7.112;2024-02-26T16:24:36;8.10;1.00
314;DHT22;143;51.634;7.112;2024-02-26T16:27:02;7.90;1.00
314;DHT22;143;51.634;7.112;2024-02-26T16:29:28;8.20;1.00
314;DHT22;143;51.634;7.112;2024-02-26T16:31:53;8.00;1.00
314;DHT22;143;51.634;7.112;2024-02-26T16:34:19;8.10;1.00
314;DHT22;143;51.634;7.112;2024-02-26T16:36:44;7.90;1.00
314;DHT22;143;51.634;7.112;2024-02-26T16:39:10;8.00;1.00
314;DHT22;143;51.634;7.112;2024-02-26T16:41:35;7.90;1.00
314;DHT22;143;51.634;7.112;2024-02-26T16:44:01;7.90;1.00
314;DHT22;143;51.634;7.112;2024-02-26T16:46:26;7.70;1.00
314;DHT22;143;51.634;7.112;2024-02-26T16:48:52;7.80;1.00
314;DHT22;143;51.634;7.112;2024-02-26T16:51:18;7.60;1.00
314;DHT22;143;51.634;7.112;2024-02-26T16:53:44;7.90;1.00
314;DHT22;143;51.634;7.112;2024-02-26T16:56:10;7.60;1.00
314;DHT22;143;51.634;7.112;2024-02-26T16:58:36;7.70;1.00
314;DHT22;143;51.634;7.112;2024-02-26T17:01:02;7.90;1.00
314;DHT22;143;51.634;7.112;2024-02-26T17:03:28;7.90;1.00